Time;durP1;ratioP1;P1;durP2;ratioP2;P2;SDS_P1;SDS_P2;PMS_P1;PMS_P2;Temp;Humidity;BMP_temperature;BMP_pressure;BME280_temperature;BME280_humidity;BME280_pressure;Samples;Min_cycle;Max_cycle;Signal;HPM_P1;HPM_P2
2022/10/02 00:01:56;;;;;;;6.22;0.10;;;13.00;99.90;;;;;;5055067;28;20021;-77
2022/10/02 00:04:48;;;;;;;8.27;0.03;;;13.00;99.90;;;;;;5055331;28;20021;-78
2022/10/02 00:07:18;;;;;;;4.65;0.68;;;13.00;99.90;;;;;;5046671;28;20112;-78
2022/10/02 00:09:47;;;;;;;3.53;0.32;;;12.90;99.90;;;;;;5056244;28;20487;-78
2022/10/02 00:12:17;;;;;;;1.67;0.13;;;12.90;99.90;;;;;;5054617;28;20025;-77
2022/10/02 00:14:45;;;;;;;4.53;0.45;;;13.00;99.90;;;;;;5057299;28;20488;-78
2022/10/02 00:17:28;;;;;;;7.93;0.50;;;13.00;99.90;;;;;;5055618;28;20075;-77
2022/10/02 00:19:55;;;;;;;10.13;0.98;;;12.90;99.90;;;;;;5054334;28;20025;-77
2022/10/02 00:22:35;;;;;;;5.68;0.20;;;12.90;99.90;;;;;;5053812;28;20028;-77
2022/10/02 00:25:16;;;;;;;5.60;0.20;;;13.00;99.90;;;;;;5054193;28;20108;-76
2022/10/02 00:27:52;;;;;;;8.05;0.20;;;13.00;99.90;;;;;;5054320;28;20067;-77
2022/10/02 00:30:18;;;;;;;2.45;0.00;;;13.10;99.90;;;;;;5054465;28;20380;-77
2022/10/02 00:33:11;;;;;;;7.10;0.32;;;13.10;99.90;;;;;;5052621;28;20017;-77
2022/10/02 00:35:59;;;;;;;10.32;1.30;;;13.10;99.90;;;;;;5052770;28;20025;-76
2022/10/02 00:38:41;;;;;;;12.07;0.90;;;13.10;99.90;;;;;;5052715;28;20028;-76
2022/10/02 00:41:30;;;;;;;10.20;0.68;;;13.00;99.90;;;;;;5052522;28;20025;-76
2022/10/02 00:44:14;;;;;;;11.25;0.47;;;12.90;99.90;;;;;;5054706;28;20063;-78
2022/10/02 00:47:00;;;;;;;9.20;0.30;;;12.80;99.90;;;;;;5057836;28;20037;-77
2022/10/02 00:49:50;;;;;;;7.20;0.10;;;12.70;99.90;;;;;;5057215;28;20021;-78
2022/10/02 00:52:53;;;;;;;10.40;1.02;;;12.70;99.90;;;;;;5056980;28;20108;-78
2022/10/02 00:55:25;;;;;;;9.82;0.60;;;12.60;99.90;;;;;;5058224;28;20029;-78
2022/10/02 00:58:30;;;;;;;9.40;0.32;;;12.60;99.90;;;;;;5054519;28;20025;-76
2022/10/02 01:01:02;;;;;;;8.35;0.73;;;12.60;99.90;;;;;;5017686;28;20041;-76
2022/10/02 01:03:40;;;;;;;6.50;0.28;;;12.60;99.90;;;;;;5055194;28;20563;-78
2022/10/02 01:06:08;;;;;;;9.73;0.30;;;12.60;99.90;;;;;;5054728;28;20014;-76
2022/10/02 01:08:35;;;;;;;6.43;0.88;;;12.70;99.90;;;;;;5052700;28;20028;-76
2022/10/02 01:11:02;;;;;;;7.82;0.32;;;12.70;99.90;;;;;;5053680;28;20060;-76
2022/10/02 01:13:30;;;;;;;5.15;0.52;;;12.70;99.90;;;;;;5055042;28;20376;-77
2022/10/02 01:16:00;;;;;;;7.82;0.35;;;12.70;99.90;;;;;;5054570;28;20025;-77
2022/10/02 01:18:29;;;;;;;9.07;0.47;;;12.80;99.90;;;;;;5056425;28;20067;-77
2022/10/02 01:21:04;;;;;;;;;;;12.80;99.90;;;;;;5199605;23;20418;-74
2022/10/02 01:23:50;;;;;;;7.32;0.70;;;12.80;99.90;;;;;;5015401;28;20282;-75
2022/10/02 01:26:16;;;;;;;12.40;1.02;;;12.90;99.90;;;;;;5033177;28;20415;-75
2022/10/02 01:28:42;;;;;;;7.68;0.73;;;12.90;99.90;;;;;;5032862;28;20029;-75
2022/10/02 01:31:11;;;;;;;8.20;0.47;;;13.00;99.90;;;;;;5033070;28;20076;-76
2022/10/02 01:33:40;;;;;;;13.00;0.80;;;13.00;99.90;;;;;;5032807;28;20533;-76
2022/10/02 01:36:06;;;;;;;;;;;13.00;99.90;;;;;;5033131;28;20018;-76
2022/10/02 01:38:32;;;;;;;10.23;0.30;;;13.30;99.90;;;;;;5033021;28;19912;-76
2022/10/02 01:40:58;;;;;;;8.27;0.50;;;13.10;99.90;;;;;;5032661;28;20029;-75
2022/10/02 01:43:34;;;;;;;8.80;0.77;;;13.10;99.90;;;;;;5032588;28;20033;-75
2022/10/02 01:46:13;;;;;;;11.27;0.75;;;13.10;99.90;;;;;;5015002;28;20021;-75
2022/10/02 01:48:47;;;;;;;11.35;0.50;;;13.10;99.90;;;;;;5014965;28;20072;-75
2022/10/02 01:51:23;;;;;;;12.27;1.55;;;13.10;99.90;;;;;;5116983;23;20053;-74
2022/10/02 01:54:12;;;;;;;18.13;1.65;;;13.00;99.90;;;;;;5053738;28;20386;-77
2022/10/02 01:56:44;;;;;;;6.53;0.28;;;13.00;99.90;;;;;;5038328;28;20029;-76
2022/10/02 01:59:49;;;;;;;10.85;0.73;;;13.00;99.90;;;;;;5056118;28;20025;-76
2022/10/02 02:02:27;;;;;;;9.30;1.05;;;13.00;99.90;;;;;;5056531;28;20029;-76
2022/10/02 02:04:58;;;;;;;12.23;0.90;;;13.00;99.90;;;;;;5056126;28;20021;-76
2022/10/02 02:07:29;;;;;;;16.48;1.52;;;13.00;99.90;;;;;;5056057;28;20023;-76
2022/10/02 02:10:07;;;;;;;13.05;1.27;;;13.00;99.90;;;;;;5056242;28;20468;-76
2022/10/02 02:12:37;;;;;;;8.07;1.15;;;13.00;99.90;;;;;;5056314;28;20476;-76
2022/10/02 02:15:38;;;;;;;6.57;0.50;;;13.00;99.90;;;;;;5039148;28;20021;-76
2022/10/02 02:18:16;;;;;;;10.00;0.52;;;13.00;99.90;;;;;;5038011;28;20040;-76
2022/10/02 02:20:46;;;;;;;6.93;0.30;;;12.90;99.90;;;;;;5055797;28;20025;-76
2022/10/02 02:23:16;;;;;;;13.07;1.10;;;12.90;99.90;;;;;;5055659;28;20451;-76
2022/10/02 02:25:46;;;;;;;12.30;0.32;;;12.90;99.90;;;;;;5055952;28;20540;-76
2022/10/02 02:28:16;;;;;;;15.95;1.05;;;12.90;99.90;;;;;;5037702;28;20484;-76
2022/10/02 02:30:45;;;;;;;7.78;0.65;;;12.90;99.90;;;;;;5037644;28;20017;-76
2022/10/02 02:33:34;;;;;;;13.27;1.50;;;13.00;99.90;;;;;;5037768;28;20400;-76
2022/10/02 02:36:02;;;;;;;;;;;13.10;99.90;;;;;;5037355;28;20040;-76
2022/10/02 02:38:32;;;;;;;7.13;0.52;;;13.10;99.90;;;;;;5055927;28;19905;-76
2022/10/02 02:41:06;;;;;;;9.32;0.40;;;13.20;99.90;;;;;;5037495;28;20021;-76
2022/10/02 02:43:39;;;;;;;13.93;0.55;;;13.20;99.90;;;;;;5055871;28;20029;-76
2022/10/02 02:47:02;;;;;;;8.70;0.93;;;13.20;99.90;;;;;;5037538;28;20025;-76
2022/10/02 02:49:25;;;;;;;8.38;0.85;;;13.20;99.90;;;;;;5026910;28;20029;-75
2022/10/02 02:51:52;;;;;;;6.40;0.90;;;13.20;99.90;;;;;;5055095;28;20400;-76
2022/10/02 02:54:23;;;;;;;11.40;0.98;;;13.20;99.90;;;;;;5055218;28;20032;-76
2022/10/02 02:56:50;;;;;;;11.50;1.45;;;13.10;99.90;;;;;;5055822;28;20051;-76
2022/10/02 02:59:18;;;;;;;8.38;1.00;;;13.10;99.90;;;;;;5037866;28;20388;-76
2022/10/02 03:01:43;;;;;;;9.10;0.85;;;13.00;99.90;;;;;;5055268;28;20473;-76
2022/10/02 03:04:11;;;;;;;12.18;0.68;;;13.00;99.90;;;;;;5055164;28;20112;-76
2022/10/02 03:06:41;;;;;;;11.23;1.25;;;13.00;99.90;;;;;;5053952;28;20017;-76
2022/10/02 03:09:12;;;;;;;10.15;1.08;;;13.00;99.90;;;;;;5055140;28;20029;-76
2022/10/02 03:11:51;;;;;;;4.90;0.13;;;12.90;99.90;;;;;;5054858;28;20017;-76
2022/10/02 03:14:19;;;;;;;12.60;0.40;;;12.90;99.90;;;;;;5054884;28;20150;-76
2022/10/02 03:17:00;;;;;;;7.35;0.63;;;12.80;99.90;;;;;;5036868;28;20132;-76
2022/10/02 03:19:47;;;;;;;11.60;1.30;;;12.80;99.90;;;;;;5036743;28;20029;-76
2022/10/02 03:22:59;;;;;;;10.82;1.40;;;12.70;99.90;;;;;;5054452;28;20021;-76
2022/10/02 03:25:37;;;;;;;9.15;0.40;;;12.70;99.90;;;;;;5055001;28;20020;-76
2022/10/02 03:28:13;;;;;;;13.00;0.90;;;12.70;99.90;;;;;;5036676;28;20017;-76
2022/10/02 03:30:40;;;;;;;19.95;1.08;;;12.70;99.90;;;;;;5054281;28;20479;-76
2022/10/02 03:33:08;;;;;;;5.65;0.68;;;12.60;99.90;;;;;;5054401;28;20021;-76
2022/10/02 03:35:34;;;;;;;6.95;1.05;;;12.60;99.90;;;;;;5036507;28;20028;-76
2022/10/02 03:38:04;;;;;;;9.10;0.90;;;12.70;99.90;;;;;;5054534;28;20082;-76
2022/10/02 03:40:30;;;;;;;4.75;0.45;;;12.70;99.90;;;;;;5054528;28;20104;-76
2022/10/02 03:42:59;;;;;;;5.95;0.30;;;12.70;99.90;;;;;;5054423;28;20108;-76
2022/10/02 03:45:25;;;;;;;;;;;12.70;99.90;;;;;;5036735;28;20056;-76
2022/10/02 03:47:50;;;;;;;10.90;1.40;;;12.80;99.90;;;;;;5054931;28;19905;-76
2022/10/02 03:50:16;;;;;;;11.23;1.15;;;12.80;99.90;;;;;;5054113;28;20051;-76
2022/10/02 03:52:43;;;;;;;11.30;1.45;;;12.80;99.90;;;;;;5036277;28;20115;-76
2022/10/02 03:55:32;;;;;;;11.50;0.52;;;12.80;99.90;;;;;;5054272;28;20021;-76
2022/10/02 03:58:01;;;;;;;;;;;12.80;99.90;;;;;;5036606;28;20029;-76
2022/10/02 04:00:40;;;;;;;8.40;0.55;;;12.90;99.90;;;;;;5054143;28;19908;-76
2022/10/02 04:03:12;;;;;;;4.57;0.43;;;12.90;99.90;;;;;;5053844;28;20033;-76
2022/10/02 04:05:49;;;;;;;9.35;0.28;;;12.90;99.90;;;;;;5054473;28;20380;-76
2022/10/02 04:08:19;;;;;;;13.77;0.60;;;12.80;99.90;;;;;;5054365;28;20025;-76
2022/10/02 04:10:51;;;;;;;8.20;0.22;;;12.80;99.90;;;;;;5053777;28;20107;-76
2022/10/02 04:13:20;;;;;;;6.72;0.10;;;12.70;99.90;;;;;;5053755;28;20070;-76
2022/10/02 04:16:35;;;;;;;11.15;0.52;;;12.70;99.90;;;;;;5053721;28;20025;-76
2022/10/02 04:19:12;;;;;;;8.93;1.35;;;12.60;99.90;;;;;;4937539;29;20114;-76
2022/10/02 04:22:16;;;;;;;8.52;1.17;;;12.60;99.90;;;;;;4953836;29;20467;-76
2022/10/02 04:24:53;;;;;;;16.02;1.10;;;12.50;99.90;;;;;;4981459;28;20037;-76
2022/10/02 04:27:34;;;;;;;13.60;1.50;;;12.40;99.90;;;;;;5035603;28;20059;-76
2022/10/02 04:30:05;;;;;;;12.98;0.77;;;12.30;99.90;;;;;;5035748;28;20498;-76
2022/10/02 04:32:35;;;;;;;9.57;0.57;;;12.30;99.90;;;;;;5035685;28;20480;-76
2022/10/02 04:35:11;;;;;;;9.63;0.47;;;12.20;99.90;;;;;;5053574;28;20395;-76
2022/10/02 04:38:05;;;;;;;8.57;0.25;;;12.20;99.90;;;;;;5053283;28;20514;-76
2022/10/02 04:40:54;;;;;;;9.20;1.15;;;12.10;99.90;;;;;;5035523;28;20411;-76
2022/10/02 04:43:46;;;;;;;7.30;0.68;;;12.10;99.90;;;;;;5053796;28;20028;-76
2022/10/02 04:46:36;;;;;;;7.75;0.57;;;11.90;99.90;;;;;;5053122;28;20025;-75
2022/10/02 04:49:23;;;;;;;8.15;0.40;;;11.90;99.90;;;;;;5035194;28;20028;-76
2022/10/02 04:52:08;;;;;;;5.95;0.20;;;11.80;99.90;;;;;;5035101;28;20499;-76
2022/10/02 04:55:14;;;;;;;8.82;0.85;;;11.80;99.90;;;;;;5053676;28;20102;-76
2022/10/02 04:58:22;;;;;;;6.85;0.40;;;11.70;99.90;;;;;;5053085;28;20040;-77
2022/10/02 05:01:29;;;;;;;11.15;0.35;;;11.70;99.90;;;;;;5053192;28;20476;-77
2022/10/02 05:04:18;;;;;;;9.07;1.02;;;11.80;99.90;;;;;;5053029;28;20484;-77
2022/10/02 05:07:18;;;;;;;7.00;0.70;;;11.90;99.90;;;;;;5035224;28;20029;-77
2022/10/02 05:09:55;;;;;;;11.90;0.80;;;11.90;99.90;;;;;;5052899;28;20107;-76
2022/10/02 05:12:37;;;;;;;15.85;1.70;;;11.90;99.90;;;;;;5035134;28;20029;-76
2022/10/02 05:15:28;;;;;;;7.25;1.25;;;12.10;99.90;;;;;;5053004;28;20031;-76
2022/10/02 05:18:31;;;;;;;20.17;1.27;;;12.20;99.90;;;;;;5053303;28;20094;-76
2022/10/02 05:21:00;;;;;;;8.15;0.50;;;12.20;99.90;;;;;;5052887;28;20033;-77
2022/10/02 05:23:47;;;;;;;10.10;0.20;;;12.30;99.90;;;;;;5052832;28;20028;-77
2022/10/02 05:26:42;;;;;;;9.75;0.73;;;12.30;99.90;;;;;;5053003;28;20102;-76
2022/10/02 05:29:40;;;;;;;8.20;0.40;;;12.20;99.90;;;;;;5035990;28;20025;-77
2022/10/02 05:32:26;;;;;;;6.00;1.08;;;12.30;99.90;;;;;;5038963;28;20021;-77
2022/10/02 05:34:57;;;;;;;5.57;0.50;;;12.30;99.90;;;;;;5039458;28;20372;-76
2022/10/02 05:37:49;;;;;;;3.83;0.68;;;12.40;99.90;;;;;;5056973;28;20032;-76
2022/10/02 05:40:24;;;;;;;10.35;0.50;;;12.40;99.90;;;;;;5045140;28;20072;-77
2022/10/02 05:42:52;;;;;;;7.13;0.85;;;12.40;99.90;;;;;;5038636;28;20029;-76
2022/10/02 05:45:28;;;;;;;10.50;0.55;;;12.30;99.90;;;;;;5056790;28;20170;-76
2022/10/02 05:48:21;;;;;;;19.48;0.38;;;12.30;99.90;;;;;;5056458;28;20013;-77
2022/10/02 05:50:51;;;;;;;3.63;0.10;;;12.20;99.90;;;;;;5021030;28;20033;-77
2022/10/02 05:53:38;;;;;;;7.88;0.75;;;12.20;99.90;;;;;;5056486;28;20084;-76
2022/10/02 05:56:23;;;;;;;8.13;0.35;;;12.20;99.90;;;;;;5056898;28;20444;-76
2022/10/02 05:59:03;;;;;;;12.23;1.00;;;12.20;99.90;;;;;;5038347;28;20021;-77
2022/10/02 06:01:42;;;;;;;9.35;0.38;;;12.20;99.90;;;;;;5056744;28;20033;-76
2022/10/02 06:04:18;;;;;;;5.78;0.20;;;12.10;99.90;;;;;;5056063;28;20025;-76
2022/10/02 06:06:54;;;;;;;10.00;0.50;;;12.10;99.90;;;;;;5038227;28;20454;-76
2022/10/02 06:09:34;;;;;;;8.20;0.52;;;12.20;99.90;;;;;;5038117;28;20021;-77
2022/10/02 06:12:09;;;;;;;13.82;0.30;;;12.20;99.90;;;;;;5056018;28;20112;-76
2022/10/02 06:14:35;;;;;;;8.68;0.55;;;12.20;99.90;;;;;;5038069;28;20017;-76
2022/10/02 06:17:13;;;;;;;14.73;1.17;;;12.20;99.90;;;;;;5055902;28;20079;-76
2022/10/02 06:19:51;;;;;;;10.02;0.38;;;12.20;99.90;;;;;;5056124;28;20323;-77
2022/10/02 06:22:20;;;;;;;14.65;0.28;;;12.20;99.90;;;;;;5055846;28;20122;-76
2022/10/02 06:24:54;;;;;;;8.52;0.30;;;12.20;99.90;;;;;;5056030;28;20380;-76
2022/10/02 06:27:31;;;;;;;4.93;0.73;;;12.30;99.90;;;;;;5055776;28;20045;-76
2022/10/02 06:30:01;;;;;;;8.23;1.00;;;12.30;99.90;;;;;;5055603;28;20113;-76
2022/10/02 06:32:36;;;;;;;11.35;0.77;;;12.30;99.90;;;;;;5055591;28;20116;-76
2022/10/02 06:35:09;;;;;;;10.45;0.93;;;12.30;99.90;;;;;;5055677;28;20107;-76
2022/10/02 06:37:55;;;;;;;5.45;0.32;;;12.40;99.90;;;;;;5055622;28;20032;-76
2022/10/02 06:40:44;;;;;;;2.85;0.20;;;12.40;99.90;;;;;;5036509;28;20114;-76
2022/10/02 06:43:41;;;;;;;11.00;0.38;;;12.40;99.90;;;;;;5055652;28;20028;-76
2022/10/02 06:46:16;;;;;;;6.05;0.75;;;12.40;99.90;;;;;;5048117;28;20102;-76
2022/10/02 06:48:57;;;;;;;7.85;1.17;;;12.50;99.90;;;;;;5038660;28;20397;-76
2022/10/02 06:51:34;;;;;;;4.82;0.38;;;12.50;99.90;;;;;;5037295;28;20028;-76
2022/10/02 06:54:18;;;;;;;9.43;0.93;;;12.50;99.90;;;;;;5055260;28;20024;-76
2022/10/02 06:57:24;;;;;;;4.78;0.52;;;12.60;99.90;;;;;;5037396;28;20024;-76
2022/10/02 07:00:10;;;;;;;7.50;1.13;;;12.70;99.90;;;;;;4999652;28;20051;-76
2022/10/02 07:02:46;;;;;;;6.82;0.93;;;12.80;99.90;;;;;;5037151;28;20103;-76
2022/10/02 07:05:36;;;;;;;8.32;0.40;;;12.80;99.90;;;;;;5055066;28;20029;-76
2022/10/02 07:08:37;;;;;;;9.20;2.03;;;12.90;99.90;;;;;;5054843;28;20033;-76
2022/10/02 07:11:24;;;;;;;11.50;1.00;;;12.90;99.90;;;;;;5055437;28;20495;-75
2022/10/02 07:14:27;;;;;;;6.28;0.30;;;13.00;99.90;;;;;;5055224;28;20051;-76
2022/10/02 07:17:04;;;;;;;8.80;0.77;;;13.10;99.90;;;;;;5036895;28;20024;-76
2022/10/02 07:19:46;;;;;;;4.63;0.38;;;13.10;99.90;;;;;;5054666;28;20029;-77
2022/10/02 07:22:31;;;;;;;5.13;0.68;;;13.20;99.90;;;;;;5054863;28;20392;-76
2022/10/02 07:25:18;;;;;;;5.60;0.60;;;13.20;99.90;;;;;;5036759;28;20032;-76
2022/10/02 07:27:54;;;;;;;4.03;0.50;;;13.30;99.90;;;;;;5054513;28;20021;-76
2022/10/02 07:30:19;;;;;;;8.20;0.80;;;13.30;99.90;;;;;;5054393;28;20025;-76
2022/10/02 07:32:47;;;;;;;7.55;1.20;;;13.40;99.90;;;;;;5054924;28;20032;-77
2022/10/02 07:35:34;;;;;;;11.73;0.73;;;13.40;99.90;;;;;;5036634;28;20029;-76
2022/10/02 07:38:19;;;;;;;6.60;0.50;;;13.40;99.90;;;;;;5036559;28;20377;-76
2022/10/02 07:41:10;;;;;;;5.93;0.32;;;13.50;99.90;;;;;;5054351;28;20029;-76
2022/10/02 07:44:04;;;;;;;8.43;0.90;;;13.60;99.90;;;;;;5054510;28;20029;-76
2022/10/02 07:46:39;;;;;;;9.10;0.43;;;13.70;99.90;;;;;;5036358;28;20106;-76
2022/10/02 07:49:46;;;;;;;8.05;0.50;;;13.80;99.90;;;;;;5036275;28;20487;-76
2022/10/02 07:52:39;;;;;;;22.25;0.98;;;13.90;99.90;;;;;;5040172;28;20419;-74
2022/10/02 07:55:21;;;;;;;6.85;0.30;;;14.00;99.90;;;;;;5054417;28;20112;-74
2022/10/02 07:58:26;;;;;;;6.55;0.65;;;14.10;99.90;;;;;;5054329;28;20539;-74
2022/10/02 08:00:58;;;;;;;9.70;0.47;;;14.20;99.90;;;;;;5054431;28;20044;-74
2022/10/02 08:03:38;;;;;;;2.72;0.65;;;14.40;99.90;;;;;;5035883;28;20025;-74
2022/10/02 08:06:05;;;;;;;4.00;0.20;;;14.50;99.90;;;;;;5054147;28;20418;-74
2022/10/02 08:08:57;;;;;;;11.93;0.50;;;14.70;99.90;;;;;;5053742;28;20017;-74
2022/10/02 08:11:52;;;;;;;6.22;0.70;;;14.70;99.90;;;;;;5053806;28;20021;-74
2022/10/02 08:14:38;;;;;;;13.82;1.05;;;14.80;99.90;;;;;;5053873;28;20052;-75
2022/10/02 08:17:29;;;;;;;5.55;0.25;;;14.80;99.90;;;;;;5053701;28;20565;-74
2022/10/02 08:20:02;;;;;;;6.82;0.32;;;14.90;99.90;;;;;;5008777;28;20553;-74
2022/10/02 08:22:28;;;;;;;14.20;0.65;;;14.90;99.90;;;;;;5053660;28;20395;-74
2022/10/02 08:25:03;;;;;;;14.35;0.80;;;14.90;99.90;;;;;;5035928;28;20067;-76
2022/10/02 08:28:15;;;;;;;9.70;0.43;;;14.90;99.90;;;;;;5036465;28;20017;-76
2022/10/02 08:30:41;;;;;;;4.60;0.75;;;15.00;99.90;;;;;;5035621;28;20021;-76
2022/10/02 08:33:21;;;;;;;11.25;0.50;;;15.00;99.90;;;;;;5035704;28;20095;-74
2022/10/02 08:35:54;;;;;;;4.30;0.40;;;15.20;99.90;;;;;;5035387;28;20100;-75
2022/10/02 08:38:44;;;;;;;11.18;0.70;;;15.20;99.90;;;;;;5053555;28;20021;-75
2022/10/02 08:41:30;;;;;;;9.15;0.63;;;15.50;99.90;;;;;;5035349;28;20028;-75
2022/10/02 08:44:41;;;;;;;10.70;0.40;;;15.60;99.90;;;;;;5053248;28;20025;-75
2022/10/02 08:47:28;;;;;;;6.63;0.43;;;15.70;99.90;;;;;;5035333;28;20083;-74
2022/10/02 08:50:18;;;;;;;5.05;0.45;;;15.80;99.90;;;;;;5035293;28;20500;-75
2022/10/02 08:53:18;;;;;;;6.70;0.40;;;16.00;99.90;;;;;;5053171;28;20036;-75
2022/10/02 08:56:02;;;;;;;5.85;1.00;;;16.00;99.90;;;;;;5035340;28;20033;-75
2022/10/02 08:59:06;;;;;;;4.55;0.68;;;16.10;99.90;;;;;;5053703;28;20024;-75
2022/10/02 09:02:15;;;;;;;7.93;0.30;;;16.20;99.90;;;;;;5053294;28;20033;-75
2022/10/02 09:05:00;;;;;;;7.38;0.40;;;16.40;99.90;;;;;;5055162;28;20025;-74
2022/10/02 09:07:31;;;;;;;10.82;0.98;;;16.50;99.90;;;;;;5057488;28;20108;-74
2022/10/02 09:10:28;;;;;;;8.35;0.60;;;16.60;99.90;;;;;;5057066;28;20396;-74
2022/10/02 09:13:18;;;;;;;18.00;1.00;;;16.70;99.90;;;;;;5039061;28;20032;-75
2022/10/02 09:15:46;;;;;;;9.63;0.80;;;16.80;99.90;;;;;;5039223;28;20484;-75
2022/10/02 09:18:51;;;;;;;9.75;0.73;;;16.90;99.90;;;;;;5057244;28;20017;-75
2022/10/02 09:21:17;;;;;;;11.65;0.45;;;17.00;99.90;;;;;;5052363;28;20076;-75
2022/10/02 09:24:02;;;;;;;7.47;0.47;;;17.00;99.90;;;;;;5056893;28;20026;-75
2022/10/02 09:26:42;;;;;;;7.72;0.15;;;17.10;99.90;;;;;;5057108;28;20021;-75
2022/10/02 09:29:27;;;;;;;7.07;0.10;;;17.10;99.90;;;;;;5056704;28;20040;-75
2022/10/02 09:32:27;;;;;;;5.20;0.30;;;17.10;99.90;;;;;;5056865;28;20385;-74
2022/10/02 09:35:30;;;;;;;8.82;0.13;;;17.10;99.90;;;;;;5056819;28;20078;-75
2022/10/02 09:38:43;;;;;;;7.50;0.70;;;17.20;99.90;;;;;;5057083;28;20115;-75
2022/10/02 09:41:40;;;;;;;9.45;1.23;;;17.30;99.90;;;;;;5038723;28;20395;-75
2022/10/02 09:44:55;;;;;;;5.97;0.45;;;17.50;99.90;;;;;;5038771;28;20479;-74
2022/10/02 09:47:23;;;;;;;6.22;0.40;;;17.60;99.90;;;;;;5056516;28;20020;-74
2022/10/02 09:50:11;;;;;;;5.85;0.93;;;17.90;99.90;;;;;;5056654;28;20392;-74
2022/10/02 09:53:09;;;;;;;7.28;0.73;;;18.10;99.90;;;;;;5038535;28;20036;-76
2022/10/02 09:56:14;;;;;;;4.50;0.20;;;18.10;99.90;;;;;;5056371;28;20488;-76
2022/10/02 09:59:18;;;;;;;6.10;0.52;;;18.30;99.90;;;;;;5038546;28;20541;-76
2022/10/02 10:02:10;;;;;;;5.57;0.43;;;18.40;99.90;;;;;;5038393;28;20024;-76
2022/10/02 10:04:51;;;;;;;4.43;0.65;;;18.50;99.90;;;;;;5056373;28;20040;-76
2022/10/02 10:08:06;;;;;;;7.18;0.80;;;18.50;99.90;;;;;;5056388;28;20116;-76
2022/10/02 10:11:06;;;;;;;3.00;0.10;;;18.50;99.90;;;;;;5038215;28;20048;-75
2022/10/02 10:13:54;;;;;;;6.97;0.20;;;18.40;99.90;;;;;;5056750;28;20051;-74
2022/10/02 10:16:45;;;;;;;9.55;0.88;;;18.30;99.90;;;;;;5037729;28;20025;-75
2022/10/02 10:19:22;;;;;;;8.98;0.82;;;18.30;99.90;;;;;;5037975;28;20025;-74
2022/10/02 10:21:53;;;;;;;4.32;0.20;;;18.40;99.90;;;;;;5056159;28;20396;-74
2022/10/02 10:24:38;;;;;;;4.97;0.63;;;18.40;99.90;;;;;;5056138;28;20091;-74
2022/10/02 10:27:12;;;;;;;1.58;0.20;;;18.40;99.90;;;;;;5056018;28;20025;-74
2022/10/02 10:30:19;;;;;;;5.28;0.22;;;18.50;99.90;;;;;;5056018;28;20029;-74
2022/10/02 10:33:07;;;;;;;6.65;0.50;;;18.70;99.90;;;;;;4959508;28;20029;-75
2022/10/02 10:35:51;;;;;;;3.92;0.50;;;18.80;99.90;;;;;;5055643;28;20017;-74
2022/10/02 10:38:48;;;;;;;5.25;0.00;;;18.90;99.90;;;;;;5055620;28;20021;-74
2022/10/02 10:41:45;;;;;;;5.55;0.35;;;19.00;99.90;;;;;;5055510;28;20017;-74
2022/10/02 10:44:30;;;;;;;4.20;0.10;;;19.20;99.90;;;;;;5055682;28;20121;-75
2022/10/02 10:47:17;;;;;;;7.45;0.65;;;19.30;99.90;;;;;;5055337;28;20107;-74
2022/10/02 10:50:07;;;;;;;2.45;0.00;;;19.20;99.90;;;;;;5037515;28;20029;-74
2022/10/02 10:52:51;;;;;;;9.10;0.17;;;19.30;99.90;;;;;;5055812;28;20033;-75
2022/10/02 10:55:20;;;;;;;10.20;0.30;;;19.40;99.90;;;;;;5055646;28;20025;-75
2022/10/02 10:58:00;;;;;;;7.25;0.65;;;19.40;99.90;;;;;;5055508;28;20074;-75
2022/10/02 11:00:54;;;;;;;4.47;0.35;;;19.20;99.90;;;;;;5055726;28;20032;-75
2022/10/02 11:03:48;;;;;;;4.47;0.43;;;19.00;99.90;;;;;;5037278;28;20392;-76
2022/10/02 11:06:25;;;;;;;2.55;0.10;;;19.00;99.90;;;;;;5054966;28;20029;-75
2022/10/02 11:09:17;;;;;;;8.35;0.52;;;19.00;99.90;;;;;;5054926;28;20419;-75
2022/10/02 11:12:04;;;;;;;6.38;0.40;;;18.80;99.90;;;;;;5054976;28;20480;-74
2022/10/02 11:14:51;;;;;;;3.70;0.25;;;18.50;99.90;;;;;;5055689;28;20372;-75
2022/10/02 11:17:38;;;;;;;5.15;0.52;;;18.30;99.90;;;;;;5055930;28;20036;-74
2022/10/02 11:20:46;;;;;;;5.32;0.15;;;18.00;99.90;;;;;;5037963;28;20021;-74
2022/10/02 11:23:40;;;;;;;7.73;0.43;;;17.70;99.90;;;;;;5021827;28;20130;-74
2022/10/02 11:26:15;;;;;;;6.85;0.65;;;17.60;99.90;;;;;;5054482;28;20248;-75
2022/10/02 11:29:04;;;;;;;7.35;0.77;;;17.40;99.90;;;;;;5054608;28;20021;-75
2022/10/02 11:31:35;;;;;;;3.92;0.30;;;17.30;99.90;;;;;;5055066;28;20028;-75
2022/10/02 11:34:34;;;;;;;5.03;0.15;;;17.40;99.90;;;;;;5036698;28;20036;-75
2022/10/02 11:37:26;;;;;;;5.63;0.30;;;17.50;99.90;;;;;;5036640;28;20037;-75
2022/10/02 11:40:11;;;;;;;8.30;0.50;;;17.60;99.90;;;;;;5036404;28;20071;-75
2022/10/02 11:43:10;;;;;;;3.97;0.32;;;17.70;99.90;;;;;;5036464;28;20098;-75
2022/10/02 11:45:36;;;;;;;;;;;17.50;99.90;;;;;;5054682;28;20021;-75
2022/10/02 11:48:32;;;;;;;3.10;0.32;;;17.50;99.90;;;;;;5054423;28;20031;-76
2022/10/02 11:51:00;;;;;;;10.48;0.32;;;17.50;99.90;;;;;;5054337;28;20564;-76
2022/10/02 11:53:33;;;;;;;;;;;17.40;99.90;;;;;;5054754;28;20434;-76
2022/10/02 11:55:58;;;;;;;6.20;0.90;;;17.50;99.90;;;;;;5036356;28;20042;-76
2022/10/02 11:58:49;;;;;;;7.13;0.10;;;18.00;99.90;;;;;;5054209;28;20045;-76
2022/10/02 12:01:27;;;;;;;3.35;0.25;;;18.30;99.90;;;;;;5036072;28;20094;-75
2022/10/02 12:04:07;;;;;;;4.40;0.47;;;18.40;99.90;;;;;;5054120;28;20029;-75
2022/10/02 12:07:03;;;;;;;3.00;0.10;;;18.50;99.90;;;;;;5053820;28;20111;-75
2022/10/02 12:09:57;;;;;;;5.07;0.00;;;18.80;99.90;;;;;;5054134;28;20476;-75
2022/10/02 12:12:35;;;;;;;9.95;1.02;;;19.20;99.90;;;;;;5035926;28;20024;-74
2022/10/02 12:15:08;;;;;;;14.35;0.65;;;19.60;99.90;;;;;;5036194;28;20021;-75
2022/10/02 12:18:15;;;;;;;6.85;0.15;;;20.00;99.90;;;;;;5054170;28;20021;-75
2022/10/02 12:26:58;;;;;;;;;;;19.60;99.90;;;;;;5054031;28;20056;-75
2022/10/02 12:29:42;;;;;;;13.45;0.55;;;19.30;99.90;;;;;;5053852;28;20013;-74
2022/10/02 12:32:36;;;;;;;8.68;0.25;;;18.90;99.90;;;;;;5053407;28;20029;-75
2022/10/02 12:35:30;;;;;;;2.72;0.30;;;18.50;99.90;;;;;;5044254;28;20032;-75
2022/10/02 12:38:09;;;;;;;3.65;0.40;;;18.10;99.90;;;;;;5053834;28;20029;-75
2022/10/02 12:41:04;;;;;;;4.05;0.10;;;18.30;99.90;;;;;;5053671;28;20028;-75
2022/10/02 12:44:24;;;;;;;5.55;0.45;;;18.60;99.90;;;;;;5053041;28;20037;-75
2022/10/02 12:47:09;;;;;;;6.05;0.10;;;18.80;99.90;;;;;;5049710;28;20052;-76
2022/10/02 12:49:44;;;;;;;5.43;0.65;;;19.20;99.90;;;;;;5035701;28;20029;-76
2022/10/02 12:52:47;;;;;;;6.35;0.15;;;19.50;99.90;;;;;;5053277;28;20035;-76
2022/10/02 12:55:51;;;;;;;2.30;0.17;;;19.80;99.90;;;;;;5035409;28;20033;-75
2022/10/02 12:58:16;;;;;;;2.83;0.22;;;20.10;99.90;;;;;;5035208;28;20108;-73
2022/10/02 13:00:57;;;;;;;3.08;0.32;;;20.30;99.90;;;;;;5034895;28;20075;-74
2022/10/02 13:04:00;;;;;;;3.15;0.00;;;20.10;99.90;;;;;;5053413;28;20380;-73
2022/10/02 13:06:45;;;;;;;4.15;0.63;;;20.10;99.90;;;;;;5034889;28;20156;-75
2022/10/02 13:09:10;;;;;;;3.00;0.00;;;20.00;99.90;;;;;;5034813;28;20550;-75
2022/10/02 13:11:55;;;;;;;5.90;0.30;;;20.00;99.90;;;;;;5052860;28;20100;-75
2022/10/02 13:14:36;;;;;;;3.83;0.30;;;19.70;99.90;;;;;;5053134;28;20025;-74
2022/10/02 13:17:45;;;;;;;4.88;0.20;;;19.40;99.90;;;;;;5052932;28;20028;-74
2022/10/02 13:20:53;;;;;;;3.72;0.45;;;19.40;99.90;;;;;;5034869;28;20025;-73
2022/10/02 13:23:24;;;;;;;5.50;0.28;;;19.70;99.90;;;;;;4994454;28;20037;-73
2022/10/02 13:26:07;;;;;;;5.93;0.15;;;20.30;99.90;;;;;;5052939;28;20112;-73
2022/10/02 13:28:51;;;;;;;10.52;0.17;;;20.70;99.90;;;;;;5053159;28;20063;-73
2022/10/02 13:31:31;;;;;;;3.88;0.17;;;21.10;99.90;;;;;;5035055;28;20094;-73
2022/10/02 13:34:15;;;;;;;5.68;0.68;;;21.00;99.90;;;;;;5052709;28;20482;-74
2022/10/02 13:37:04;;;;;;;6.55;0.10;;;20.70;99.90;;;;;;5052767;28;20021;-73
2022/10/02 13:39:36;;;;;;;5.03;0.38;;;20.20;99.90;;;;;;5034542;28;20123;-73
2022/10/02 13:42:27;;;;;;;2.85;0.15;;;19.60;99.90;;;;;;5052738;28;20025;-73
2022/10/02 13:45:14;;;;;;;6.22;0.70;;;19.20;99.90;;;;;;5053128;28;20033;-73
2022/10/02 13:47:55;;;;;;;7.05;0.40;;;18.70;99.90;;;;;;5052987;28;20032;-73
2022/10/02 13:56:03;;;;;;;8.03;1.20;;;19.20;99.90;;;;;;5054690;28;20414;-74
2022/10/02 13:58:49;;;;;;;5.80;0.30;;;19.90;99.90;;;;;;5056735;28;20025;-79
2022/10/02 14:01:38;;;;;;;1.77;0.00;;;20.70;99.90;;;;;;5037861;28;20021;-78
2022/10/02 14:04:03;;;;;;;;;;;21.50;99.90;;;;;;5035987;28;20487;-78
2022/10/02 14:06:35;;;;;;;5.68;0.70;;;22.30;99.80;;;;;;5036020;28;19913;-78
2022/10/02 14:09:22;;;;;;;3.50;0.45;;;22.90;95.00;;;;;;5037163;28;20022;-78
2022/10/02 14:12:12;;;;;;;3.50;0.10;;;23.10;96.40;;;;;;5089019;22;20040;-88
2022/10/02 14:14:48;;;;;;;4.13;0.00;;;23.50;94.90;;;;;;5070438;28;20029;-90
2022/10/02 14:17:36;;;;;;;2.65;0.10;;;23.90;94.40;;;;;;5072498;28;20024;-88